Time;durP1;ratioP1;P1;durP2;ratioP2;P2;SDS_P1;SDS_P2;PMS_P1;PMS_P2;Temp;Humidity;BMP_temperature;BMP_pressure;BME280_temperature;BME280_humidity;BME280_pressure;Samples;Min_cycle;Max_cycle;Signal;HPM_P1;HPM_P2
2023/11/09 00:01:52;;;;;;;0.77;0.77;;;;;;;8.18;100.00;100602.25;5047215;28;20468;-75
2023/11/09 00:04:17;;;;;;;2.95;2.85;;;;;;;8.27;100.00;100669.44;5047997;28;20511;-75
2023/11/09 00:06:43;;;;;;;0.20;0.20;;;;;;;8.22;100.00;100627.56;5047553;28;20029;-74
2023/11/09 00:09:09;;;;;;;0.20;0.20;;;;;;;8.40;100.00;100657.44;5046801;28;20029;-74
2023/11/09 00:11:35;;;;;;;0.22;0.20;;;;;;;8.47;100.00;100671.47;5047647;28;20029;-75
2023/11/09 00:14:04;;;;;;;0.30;0.30;;;;;;;8.85;100.00;100742.59;5038084;28;20091;-75
2023/11/09 00:16:42;;;;;;;0.20;0.20;;;;;;;8.41;100.00;100685.38;5037173;28;20037;-75
2023/11/09 00:19:07;;;;;;;1.20;1.10;;;;;;;8.28;100.00;100658.13;5041565;28;20124;-75
2023/11/09 00:21:33;;;;;;;0.40;0.40;;;;;;;8.19;100.00;100651.06;5035704;28;20362;-74
2023/11/09 00:23:59;;;;;;;0.20;0.20;;;;;;;8.86;100.00;100775.75;5022975;28;20414;-74
2023/11/09 00:26:25;;;;;;;0.20;0.20;;;;;;;8.29;100.00;100661.63;5043556;28;20030;-73
2023/11/09 00:28:51;;;;;;;0.20;0.20;;;;;;;8.84;100.00;100751.28;5030695;28;20050;-73
2023/11/09 00:31:19;;;;;;;0.85;0.85;;;;;;;9.04;100.00;100783.84;5031029;28;20096;-74
2023/11/09 00:33:44;;;;;;;0.20;0.20;;;;;;;7.95;100.00;100659.41;5025164;28;20559;-73
2023/11/09 00:36:10;;;;;;;1.77;1.13;;;;;;;8.33;100.00;100682.59;5017927;28;20029;-74
2023/11/09 00:38:35;;;;;;;0.93;0.88;;;;;;;8.79;100.00;100766.94;5038454;28;20040;-74
2023/11/09 00:41:03;;;;;;;0.20;0.20;;;;;;;8.66;100.00;100759.78;5029759;28;20107;-74
2023/11/09 00:43:29;;;;;;;0.30;0.30;;;;;;;8.16;100.00;100655.34;5009472;28;20133;-74
2023/11/09 00:45:55;;;;;;;8.18;1.70;;;;;;;8.52;100.00;100706.41;5024625;28;20049;-74
2023/11/09 00:48:40;;;;;;;1.77;1.38;;;;;;;8.18;100.00;100658.88;5028776;28;20087;-75
2023/11/09 00:51:06;;;;;;;9.77;9.23;;;;;;;8.17;100.00;100639.69;5030499;28;20029;-73
2023/11/09 00:53:31;;;;;;;0.20;0.20;;;;;;;8.39;100.00;100681.81;5032368;28;20059;-73
2023/11/09 00:55:57;;;;;;;0.30;0.30;;;;;;;8.67;100.00;100748.47;5029866;28;20547;-73
2023/11/09 00:58:23;;;;;;;0.20;0.20;;;;;;;8.63;100.00;100759.75;5026934;28;20038;-73
2023/11/09 01:00:49;;;;;;;0.20;0.20;;;;;;;8.52;100.00;100728.22;5010511;28;20135;-75
2023/11/09 01:03:15;;;;;;;0.75;0.75;;;;;;;8.81;100.00;100786.16;5027572;28;20053;-75
2023/11/09 01:06:09;;;;;;;0.30;0.30;;;;;;;8.88;100.00;100794.97;5033331;28;20026;-74
2023/11/09 01:08:37;;;;;;;0.20;0.20;;;;;;;8.98;100.00;100793.34;5033562;28;20029;-75
2023/11/09 01:11:21;;;;;;;0.60;0.60;;;;;;;8.64;100.00;100779.81;5032641;28;20038;-75
2023/11/09 01:13:47;;;;;;;0.20;0.20;;;;;;;8.77;100.00;100801.78;5032411;28;20366;-74
2023/11/09 01:16:12;;;;;;;1.95;1.85;;;;;;;8.78;100.00;100798.31;5051187;28;20047;-74
2023/11/09 01:18:38;;;;;;;1.05;0.95;;;;;;;8.75;100.00;100799.13;5029204;28;20444;-74
2023/11/09 01:21:05;;;;;;;0.30;0.30;;;;;;;8.77;100.00;100809.63;5016447;28;20056;-75
2023/11/09 01:23:30;;;;;;;0.30;0.30;;;;;;;8.70;100.00;100803.44;5036814;28;20023;-75
2023/11/09 01:25:56;;;;;;;0.70;0.70;;;;;;;7.93;100.00;100702.94;5032796;28;20033;-74
2023/11/09 01:28:22;;;;;;;0.20;0.20;;;;;;;8.64;100.00;100801.63;5030255;28;20124;-74
2023/11/09 01:30:59;;;;;;;0.40;0.40;;;;;;;7.91;100.00;100715.09;5028653;28;20108;-76
2023/11/09 01:33:31;;;;;;;0.85;0.82;;;;;;;8.60;100.00;100831.22;5046421;28;20093;-73
2023/11/09 01:35:56;;;;;;;0.30;0.30;;;;;;;8.55;100.00;100834.63;5035178;28;20326;-74
2023/11/09 01:38:25;;;;;;;0.30;0.30;;;;;;;8.57;100.00;100838.13;5029040;28;20038;-74
2023/11/09 01:40:52;;;;;;;0.50;0.50;;;;;;;8.49;100.00;100834.53;5035729;28;20033;-73
2023/11/09 01:43:18;;;;;;;1.75;1.38;;;;;;;7.92;100.00;100727.31;5037839;28;20041;-74
2023/11/09 01:45:45;;;;;;;0.22;0.22;;;;;;;8.04;100.00;100752.75;5048307;28;20056;-73
2023/11/09 01:48:12;;;;;;;1.45;1.20;;;;;;;8.44;100.00;100821.38;5034065;28;20120;-73
2023/11/09 01:50:37;;;;;;;0.80;0.80;;;;;;;8.41;100.00;100829.19;5039707;28;20081;-74
2023/11/09 01:53:07;;;;;;;0.20;0.20;;;;;;;8.31;100.00;100822.91;5043890;28;20383;-74
2023/11/09 01:55:52;;;;;;;0.32;0.32;;;;;;;8.33;100.00;100835.97;5030252;28;20434;-73
2023/11/09 01:58:17;;;;;;;0.30;0.30;;;;;;;8.27;100.00;100846.34;5028074;28;20388;-75
2023/11/09 02:01:18;;;;;;;0.75;0.75;;;;;;;8.50;100.00;100860.69;5036965;28;20036;-73
2023/11/09 02:04:21;;;;;;;1.50;1.00;;;;;;;8.40;100.00;100861.41;5030798;28;20060;-74
2023/11/09 02:06:48;;;;;;;0.30;0.30;;;;;;;7.76;100.00;100754.03;5030351;28;20042;-73
2023/11/09 02:09:26;;;;;;;0.65;0.65;;;;;;;8.36;100.00;100876.13;5031116;28;20294;-73
2023/11/09 02:11:58;;;;;;;1.05;0.98;;;;;;;7.77;100.00;100772.38;5031172;28;20353;-74
2023/11/09 02:15:01;;;;;;;0.30;0.30;;;;;;;8.29;100.00;100878.59;5043284;28;20041;-73
2023/11/09 02:17:28;;;;;;;0.20;0.20;;;;;;;8.16;100.00;100862.72;5043087;28;20052;-73
2023/11/09 02:19:55;;;;;;;1.55;1.45;;;;;;;7.47;100.00;100769.19;5029178;28;20926;-73
2023/11/09 02:22:25;;;;;;;0.30;0.30;;;;;;;7.78;100.00;100831.56;5043663;28;20131;-74
2023/11/09 02:25:32;;;;;;;0.40;0.40;;;;;;;8.18;100.00;100895.00;5051253;28;20041;-74
2023/11/09 02:28:07;;;;;;;0.20;0.20;;;;;;;7.43;100.00;100773.47;5041417;28;20037;-75
2023/11/09 02:30:38;;;;;;;0.28;0.28;;;;;;;7.98;100.00;100875.47;5045477;28;20164;-73
2023/11/09 02:33:04;;;;;;;0.20;0.20;;;;;;;7.36;100.00;100766.38;5031048;28;20104;-74
2023/11/09 02:35:31;;;;;;;0.30;0.30;;;;;;;7.24;100.00;100766.16;5039707;28;20047;-75
2023/11/09 02:37:56;;;;;;;0.30;0.30;;;;;;;6.88;100.00;100791.53;5028668;28;20180;-75
2023/11/09 02:40:45;;;;;;;0.30;0.30;;;;;;;7.68;100.00;100908.00;5011587;28;20117;-75
2023/11/09 02:43:11;;;;;;;0.30;0.30;;;;;;;7.16;100.00;100782.56;5030358;28;20432;-73
2023/11/09 02:45:36;;;;;;;0.30;0.30;;;;;;;7.82;100.00;100909.16;5044221;28;20029;-74
2023/11/09 02:48:17;;;;;;;0.20;0.20;;;;;;;7.10;100.00;100774.59;5032464;28;20100;-74
2023/11/09 02:54:26;;;;;;;0.30;0.30;;;;;;;7.43;100.00;100921.41;5038290;28;20052;-74
2023/11/09 03:00:27;;;;;;;0.20;0.20;;;;;;;7.37;100.00;100932.59;5032348;28;20091;-73
2023/11/09 03:03:22;;;;;;;0.55;0.55;;;;;;;7.57;100.00;100936.50;5033759;28;20028;-74
2023/11/09 03:06:01;;;;;;;0.30;0.30;;;;;;;6.32;100.00;100819.81;5031928;28;20040;-72
2023/11/09 03:18:24;;;;;;;0.20;0.20;;;;;;;7.40;100.00;100933.56;5028881;28;20045;-74
2023/11/09 03:21:06;;;;;;;0.22;0.22;;;;;;;7.18;100.00;100869.56;5024080;28;20033;-73
2023/11/09 03:23:34;;;;;;;0.20;0.20;;;;;;;6.96;100.00;100836.03;5035818;28;20095;-73
2023/11/09 03:26:00;;;;;;;0.30;0.30;;;;;;;6.76;100.00;100831.25;5038656;28;20060;-73
2023/11/09 03:28:26;;;;;;;0.63;0.63;;;;;;;7.32;100.00;100944.66;5037667;28;20457;-73
2023/11/09 03:31:42;;;;;;;1.30;1.20;;;;;;;7.39;100.00;100957.00;5025159;28;20099;-73
2023/11/09 03:34:08;;;;;;;0.20;0.20;;;;;;;6.88;100.00;100868.91;5029170;28;20049;-73
2023/11/09 03:36:34;;;;;;;0.30;0.30;;;;;;;6.72;100.00;100967.66;5033340;28;20562;-74
2023/11/09 03:39:00;;;;;;;0.32;0.32;;;;;;;6.38;100.00;100840.81;5011586;28;20028;-74
2023/11/09 03:41:26;;;;;;;2.28;2.17;;;;;;;6.61;100.00;100880.47;5028954;28;20025;-74
2023/11/09 03:43:53;;;;;;;0.30;0.30;;;;;;;7.02;100.00;100970.94;5029362;28;20493;-74
2023/11/09 03:46:21;;;;;;;0.28;0.28;;;;;;;7.25;100.00;100971.50;5036838;28;20041;-74
2023/11/09 03:48:47;;;;;;;0.45;0.45;;;;;;;6.64;100.00;100859.66;5035572;28;20033;-74
2023/11/09 03:51:35;;;;;;;3.72;3.55;;;;;;;7.39;100.00;100981.38;5044987;28;20040;-75
2023/11/09 03:54:03;;;;;;;1.30;0.80;;;;;;;6.88;100.00;100879.31;5041892;28;20025;-74
2023/11/09 03:56:29;;;;;;;0.65;0.60;;;;;;;7.07;100.00;100938.94;5033442;28;20029;-73
2023/11/09 03:58:54;;;;;;;0.30;0.30;;;;;;;6.52;100.00;100846.34;5024477;28;20046;-73
2023/11/09 04:04:41;;;;;;;1.77;1.70;;;;;;;7.27;100.00;100964.59;5030932;28;20079;-73
2023/11/09 04:07:07;;;;;;;0.30;0.30;;;;;;;6.82;100.00;100890.53;5029692;28;20044;-74
2023/11/09 04:09:33;;;;;;;0.30;0.30;;;;;;;6.22;100.00;100815.22;5028760;28;20051;-73
2023/11/09 04:11:58;;;;;;;18.52;17.33;;;;;;;7.08;100.00;100995.47;5026741;28;20063;-74
2023/11/09 04:14:24;;;;;;;0.20;0.20;;;;;;;6.41;100.00;100871.28;5023470;28;20373;-73
2023/11/09 04:16:49;;;;;;;0.60;0.60;;;;;;;7.27;100.00;100985.47;5027964;28;20025;-74
2023/11/09 04:19:16;;;;;;;0.20;0.20;;;;;;;7.00;100.00;100991.81;5040191;28;20070;-73
2023/11/09 04:21:42;;;;;;;0.30;0.30;;;;;;;6.90;100.00;101008.06;5023891;28;20095;-75
2023/11/09 04:24:08;;;;;;;0.20;0.20;;;;;;;7.16;100.00;101003.47;5043817;28;20040;-75
2023/11/09 04:26:34;;;;;;;0.30;0.30;;;;;;;6.90;100.00;100982.84;5026034;28;20022;-76
2023/11/09 04:29:01;;;;;;;0.30;0.30;;;;;;;6.91;100.00;101008.13;5028235;28;20100;-76
2023/11/09 04:31:30;;;;;;;1.02;0.85;;;;;;;6.63;100.00;100953.53;5041117;28;20064;-75
2023/11/09 04:34:08;;;;;;;0.30;0.30;;;;;;;7.02;100.00;101003.13;5028762;28;20041;-76
2023/11/09 04:36:42;;;;;;;0.30;0.30;;;;;;;6.55;100.00;100906.38;5029801;28;20034;-75
2023/11/09 04:39:08;;;;;;;0.50;0.50;;;;;;;7.07;100.00;101008.47;5030023;28;20438;-76
2023/11/09 04:41:34;;;;;;;0.30;0.30;;;;;;;6.83;100.00;101029.63;5047453;28;20408;-74
2023/11/09 04:44:00;;;;;;;0.20;0.20;;;;;;;6.41;100.00;100942.53;5042441;28;20037;-75
2023/11/09 04:46:40;;;;;;;0.40;0.40;;;;;;;7.06;100.00;101027.59;5039626;28;20082;-75
2023/11/09 04:49:37;;;;;;;0.20;0.20;;;;;;;6.93;100.00;101037.75;5048652;28;20049;-75
2023/11/09 04:52:09;;;;;;;0.20;0.20;;;;;;;6.20;100.00;100941.97;5052253;28;20037;-76
2023/11/09 04:54:45;;;;;;;0.30;0.30;;;;;;;6.96;100.00;101045.63;5029195;28;20095;-74
2023/11/09 05:07:50;;;;;;;1.00;0.75;;;;;;;6.89;100.00;101058.50;5027868;28;20033;-75
2023/11/09 05:10:17;;;;;;;0.30;0.30;;;;;;;5.96;100.00;100950.91;5032068;28;20041;-75
2023/11/09 05:12:42;;;;;;;0.50;0.50;;;;;;;6.05;100.00;100943.34;5031879;28;20041;-74
2023/11/09 05:15:08;;;;;;;0.30;0.30;;;;;;;6.83;100.00;101033.13;5046721;28;20462;-75
2023/11/09 05:17:34;;;;;;;0.40;0.40;;;;;;;5.68;100.00;100929.28;5053118;28;20132;-75
2023/11/09 05:20:00;;;;;;;1.05;0.95;;;;;;;6.18;100.00;100975.84;5032613;28;20045;-75
2023/11/09 05:22:26;;;;;;;4.57;4.38;;;;;;;6.73;100.00;101070.25;5031532;28;20036;-75
2023/11/09 05:24:52;;;;;;;0.20;0.20;;;;;;;6.88;100.00;101095.84;5030795;28;20386;-75
2023/11/09 05:27:19;;;;;;;0.40;0.40;;;;;;;6.86;100.00;101079.25;5013419;28;20388;-76
2023/11/09 05:29:46;;;;;;;0.50;0.50;;;;;;;6.32;100.00;100984.00;5017618;28;20041;-77
2023/11/09 05:32:14;;;;;;;0.85;0.85;;;;;;;6.58;100.00;101073.34;5026322;28;20437;-75
2023/11/09 05:34:39;;;;;;;0.73;0.73;;;;;;;5.75;100.00;100942.47;5031865;28;20036;-76
2023/11/09 05:37:05;;;;;;;0.30;0.30;;;;;;;5.02;100.00;100871.84;5016017;28;20065;-75
2023/11/09 05:39:36;;;;;;;0.43;0.43;;;;;;;6.22;100.00;101011.53;5030360;28;20129;-75
2023/11/09 05:48:45;;;;;;;0.40;0.40;;;;;;;7.02;100.00;101112.72;5034413;28;20056;-78
2023/11/09 05:51:10;;;;;;;1.10;1.10;;;;;;;7.13;100.00;101128.66;5016246;28;20025;-78
2023/11/09 05:53:36;;;;;;;0.30;0.30;;;;;;;7.00;100.00;101082.22;5036358;28;20152;-77
2023/11/09 05:56:02;;;;;;;3.58;2.33;;;;;;;6.72;100.00;101032.88;5054505;28;20044;-78
2023/11/09 06:01:56;;;;;;;2.47;2.38;;;;;;;6.39;100.00;101000.69;5038242;28;20120;-78
2023/11/09 06:04:21;;;;;;;5.55;5.30;;;;;;;6.45;100.00;101012.16;5009347;28;20041;-77
2023/11/09 06:06:48;;;;;;;13.13;2.67;;;;;;;7.25;100.00;101117.66;5026577;28;20473;-77
2023/11/09 06:09:15;;;;;;;0.25;0.25;;;;;;;6.82;100.00;101038.31;5040327;28;20112;-77
2023/11/09 06:11:54;;;;;;;0.30;0.30;;;;;;;7.01;100.00;101031.81;5038446;28;20025;-79
2023/11/09 07:42:43;;;;;;;0.20;0.20;;;;;;;8.87;100.00;101225.00;4999062;28;19988;-80
2023/11/09 08:23:22;;;;;;;0.20;0.20;;;;;;;10.05;100.00;101245.44;4902469;28;20433;-82
2023/11/09 08:26:11;;;;;;;1.88;1.77;;;;;;;10.16;100.00;101248.25;4870703;29;20560;-81
2023/11/09 08:30:09;;;;;;;;;;;;;;;;;;;;;
2023/11/09 08:32:26;;;;;;;0.25;0.25;;;;;;;10.47;100.00;101243.47;4917298;29;20165;-80
2023/11/09 08:34:53;;;;;;;93.03;86.00;;;;;;;15.59;100.00;101239.09;4933041;28;20043;-71
2023/11/09 08:37:21;;;;;;;54.17;50.42;;;;;;;17.47;100.00;101213.16;4972594;28;20417;-73
2023/11/09 08:39:48;;;;;;;148.45;122.55;;;;;;;15.63;100.00;101193.16;4990545;28;20066;-73
2023/11/09 08:42:14;;;;;;;9.75;9.18;;;;;;;11.44;100.00;101135.09;4984955;28;20054;-73
2023/11/09 08:44:41;;;;;;;24.15;21.70;;;;;;;11.95;100.00;101243.34;4985237;28;20027;-69
2023/11/09 08:47:07;;;;;;;17.50;15.05;;;;;;;13.12;100.00;101234.28;5001462;28;20129;-74
2023/11/09 08:49:39;;;;;;;4.63;3.78;;;;;;;10.94;100.00;101240.56;4988867;28;20133;-76
2023/11/09 08:52:05;;;;;;;3.70;3.35;;;;;;;10.38;100.00;101189.13;4990808;28;20053;-76
2023/11/09 08:54:31;;;;;;;9.80;7.75;;;;;;;13.00;100.00;101231.63;4999344;28;20030;-76
2023/11/09 09:00:18;;;;;;;5.20;3.63;;;;;;;12.23;100.00;101234.75;4995886;28;20037;-74
2023/11/09 09:02:51;;;;;;;5.82;3.33;;;;;;;13.92;100.00;101118.31;4986833;28;20026;-76
2023/11/09 09:05:25;;;;;;;;;;;;;;;12.49;100.00;101233.16;4996596;28;20500;-74
2023/11/09 09:07:53;;;;;;;4.43;4.03;;;;;;;13.01;100.00;101226.34;4994395;28;20032;-74
2023/11/09 09:11:06;;;;;;;4.07;3.67;;;;;;;13.22;100.00;101235.19;4994064;28;20046;-73
2023/11/09 09:17:25;;;;;;;1.02;0.95;;;;;;;12.00;100.00;101225.84;5054931;28;20040;-82
2023/11/09 09:19:51;;;;;;;2.45;1.38;;;;;;;11.54;100.00;101154.44;5032871;28;20493;-80
2023/11/09 09:22:16;;;;;;;12.00;3.22;;;;;;;11.28;100.00;101123.56;5033987;28;20061;-81
2023/11/09 09:24:42;;;;;;;1.45;1.35;;;;;;;12.15;100.00;101230.31;5034086;28;20029;-82
2023/11/09 09:27:26;;;;;;;2.10;1.90;;;;;;;11.85;100.00;101110.88;5032982;28;20025;-81
2023/11/09 09:29:52;;;;;;;2.72;1.92;;;;;;;12.57;100.00;101215.63;5013887;28;20440;-81
2023/11/09 09:32:17;;;;;;;9.85;2.60;;;;;;;11.79;100.00;101147.63;5040309;28;20116;-81
2023/11/09 09:34:44;;;;;;;0.70;0.70;;;;;;;11.82;100.00;101110.81;5054087;28;20302;-81
2023/11/09 09:37:10;;;;;;;0.93;0.85;;;;;;;12.33;100.00;101219.91;5043780;28;20044;-79
2023/11/09 09:39:37;;;;;;;1.70;1.33;;;;;;;12.22;100.00;101182.13;5046653;28;20310;-80
2023/11/09 09:43:00;;;;;;;2.20;1.95;;;;;;;12.30;100.00;101219.91;5034874;28;20503;-80
2023/11/09 09:46:42;;;;;;;11.77;2.03;;;;;;;12.64;100.00;101223.59;5014084;28;20048;-81
2023/11/09 09:49:17;;;;;;;3.78;3.20;;;;;;;12.18;100.00;101104.94;5031708;28;20047;-81
2023/11/09 09:51:43;;;;;;;15.75;7.05;;;;;;;12.36;100.00;101137.44;5018394;28;20058;-81
2023/11/09 09:54:55;;;;;;;4.32;2.38;;;;;;;12.75;100.00;101214.84;5009590;28;20026;-81
2023/11/09 09:57:21;;;;;;;1.02;0.80;;;;;;;11.97;100.00;101218.81;5013602;28;20446;-80
2023/11/09 09:59:48;;;;;;;2.45;1.55;;;;;;;12.48;100.00;101203.34;5025420;28;20060;-82
2023/11/09 10:02:17;;;;;;;7.35;1.55;;;;;;;12.62;100.00;101203.41;5018748;28;20501;-80
2023/11/09 10:08:30;;;;;;;2.22;1.80;;;;;;;12.79;100.00;101221.91;5011589;28;20516;-80
2023/11/09 10:10:58;;;;;;;7.78;3.70;;;;;;;12.19;100.00;101097.91;5012654;28;20050;-81
2023/11/09 10:13:33;;;;;;;5.78;1.85;;;;;;;12.57;100.00;101139.28;5023530;28;20477;-77
2023/11/09 10:16:02;;;;;;;1.17;1.08;;;;;;;12.51;100.00;101199.84;5008720;28;20057;-77
2023/11/09 10:18:29;;;;;;;1.30;1.00;;;;;;;12.54;100.00;101147.19;4994294;28;20045;-79
2023/11/09 10:20:58;;;;;;;5.03;2.95;;;;;;;13.03;100.00;101202.66;5005321;28;20113;-78
2023/11/09 10:23:24;;;;;;;1.00;0.90;;;;;;;12.40;100.00;101183.97;4996026;28;20030;-79
2023/11/09 10:25:51;;;;;;;0.60;0.60;;;;;;;12.52;100.00;101201.56;5004810;28;20034;-79
2023/11/09 10:28:16;;;;;;;1.58;1.33;;;;;;;12.99;100.00;101216.69;5009283;28;20099;-79
2023/11/09 10:30:44;;;;;;;2.30;2.10;;;;;;;13.06;100.00;101158.75;5014334;28;20034;-80
2023/11/09 10:33:14;;;;;;;20.55;1.90;;;;;;;12.20;100.00;101162.84;5008670;28;20112;-79
2023/11/09 10:35:41;;;;;;;4.82;4.38;;;;;;;12.53;100.00;101104.19;4987216;28;20029;-80
2023/11/09 10:38:12;;;;;;;0.65;0.52;;;;;;;12.66;100.00;101206.03;5011315;28;20117;-77
2023/11/09 10:40:42;;;;;;;0.55;0.47;;;;;;;12.46;100.00;101097.16;5026647;28;20107;-79
2023/11/09 10:43:19;;;;;;;5.08;2.52;;;;;;;12.68;100.00;101095.44;4726792;28;8292382;-79
2023/11/09 10:45:46;;;;;;;0.85;0.85;;;;;;;12.56;100.00;101122.63;5006501;28;20049;-78
2023/11/09 10:48:22;;;;;;;1.00;1.00;;;;;;;12.91;100.00;101116.56;5031010;28;20129;-78
2023/11/09 10:50:49;;;;;;;2.90;1.20;;;;;;;13.46;100.00;101193.09;5034700;28;20052;-79
2023/11/09 10:53:20;;;;;;;0.70;0.70;;;;;;;13.39;100.00;101146.53;5049642;28;20052;-79
2023/11/09 10:55:49;;;;;;;0.95;0.70;;;;;;;13.80;100.00;101194.84;5032839;28;20091;-77
2023/11/09 10:58:20;;;;;;;0.82;0.65;;;;;;;13.68;100.00;101167.59;5010145;28;20386;-78
2023/11/09 11:01:06;;;;;;;0.90;0.82;;;;;;;13.59;100.00;101204.53;5008424;28;20049;-79
2023/11/09 11:03:39;;;;;;;4.03;3.80;;;;;;;13.69;100.00;101198.34;5010382;28;20041;-79
2023/11/09 11:06:16;;;;;;;;;;;;;;;13.69;100.00;101197.47;5041439;28;20437;-79
2023/11/09 11:09:18;;;;;;;1.65;0.93;;;;;;;13.04;100.00;101092.00;5039667;28;19909;-79
2023/11/09 11:11:55;;;;;;;1.33;0.93;;;;;;;13.59;100.00;101145.63;5027819;28;20041;-82
2023/11/09 12:08:53;;;;;;;;;;;;;;;;;;;;;
2023/11/09 12:25:34;;;;;;;6.43;3.70;;;;;;;14.02;100.00;101164.91;4969078;28;20550;-80
2023/11/09 12:28:03;;;;;;;0.73;0.70;;;;;;;13.88;100.00;101164.97;4966595;28;20053;-81
2023/11/09 12:30:29;;;;;;;0.57;0.55;;;;;;;13.41;100.00;101086.75;4959063;28;20387;-79
2023/11/09 12:32:56;;;;;;;1.08;0.82;;;;;;;13.83;100.00;101132.41;4949833;28;20030;-79
2023/11/09 12:35:23;;;;;;;1.33;1.20;;;;;;;13.47;100.00;101093.78;5000116;28;20037;-79
2023/11/09 12:38:11;;;;;;;1.23;1.15;;;;;;;13.92;100.00;101158.75;5032073;28;20025;-79
2023/11/09 12:47:46;;;;;;;1.52;1.42;;;;;;;13.74;100.00;101137.69;5001699;28;20143;-75
2023/11/09 12:50:16;;;;;;;0.38;0.38;;;;;;;13.84;100.00;101147.38;5028250;28;20411;-76
2023/11/09 12:52:58;;;;;;;0.40;0.40;;;;;;;13.90;100.00;101149.09;5030233;28;20034;-78
2023/11/09 12:56:07;;;;;;;0.75;0.70;;;;;;;13.81;100.00;101150.00;5028721;28;20144;-77
2023/11/09 12:58:37;;;;;;;1.30;1.17;;;;;;;13.25;100.00;101037.53;5031042;28;20029;-77
2023/11/09 13:01:05;;;;;;;2.28;2.08;;;;;;;13.84;100.00;101091.09;5033972;28;20037;-76
2023/11/09 13:03:31;;;;;;;1.13;0.88;;;;;;;13.81;100.00;101131.53;5030112;28;20037;-77
2023/11/09 13:06:08;;;;;;;0.43;0.43;;;;;;;13.65;100.00;101145.59;5015324;28;20311;-77
2023/11/09 13:08:34;;;;;;;0.38;0.38;;;;;;;13.61;100.00;101141.25;5014090;28;20172;-77
2023/11/09 13:11:02;;;;;;;0.60;0.60;;;;;;;13.84;100.00;101138.59;5034849;28;20068;-76
2023/11/09 13:13:33;;;;;;;2.25;2.00;;;;;;;13.29;100.00;101047.22;5015502;28;20041;-76
2023/11/09 13:16:05;;;;;;;0.30;0.30;;;;;;;13.75;100.00;101141.22;5017282;28;20120;-76
2023/11/09 13:35:26;;;;;;;1.10;0.90;;;;;;;13.56;100.00;101132.47;5034305;28;20064;-77
2023/11/09 13:37:58;;;;;;;2.47;0.55;;;;;;;13.45;100.00;101106.09;5033675;28;20037;-76
2023/11/09 13:46:06;;;;;;;0.55;0.50;;;;;;;13.37;100.00;101150.91;5041198;28;20044;-76
2023/11/09 13:52:38;;;;;;;1.00;0.93;;;;;;;13.26;100.00;101164.03;5039672;28;20033;-76
2023/11/09 13:55:22;;;;;;;1.27;1.17;;;;;;;13.32;100.00;101151.78;5033842;28;20436;-76
2023/11/09 13:57:48;;;;;;;0.77;0.60;;;;;;;13.17;100.00;101145.59;5029429;28;20038;-76
2023/11/09 14:00:31;;;;;;;0.30;0.30;;;;;;;12.77;100.00;101058.59;5031465;28;20026;-75
2023/11/09 14:03:23;;;;;;;;;;;;;;;13.30;100.00;101164.97;5012110;28;20025;-76
2023/11/09 14:05:50;;;;;;;16.38;4.68;;;;;;;13.19;100.00;101162.28;5026418;28;19988;-77
2023/11/09 14:08:58;;;;;;;3.75;2.03;;;;;;;13.19;100.00;101162.28;5042753;28;20037;-77
2023/11/09 14:11:31;;;;;;;1.00;0.85;;;;;;;12.66;100.00;101058.56;5032239;28;20044;-77
2023/11/09 14:23:46;;;;;;;0.73;0.60;;;;;;;12.86;100.00;101155.19;5042475;28;20043;-77
2023/11/09 14:26:46;;;;;;;0.40;0.40;;;;;;;12.84;100.00;101163.09;5040668;28;20055;-77
2023/11/09 14:33:18;;;;;;;0.20;0.20;;;;;;;12.77;100.00;101158.66;5027425;28;20045;-77
2023/11/09 14:36:15;;;;;;;1.25;0.90;;;;;;;12.77;100.00;101157.81;5029311;28;20517;-78
2023/11/09 14:38:47;;;;;;;0.70;0.60;;;;;;;12.66;100.00;101155.13;5042151;28;20130;-77
2023/11/09 14:41:16;;;;;;;3.97;2.83;;;;;;;12.25;100.00;101074.28;5031538;28;20048;-76
2023/11/09 14:43:42;;;;;;;0.90;0.68;;;;;;;12.47;100.00;101130.47;5015946;28;20037;-76
2023/11/09 14:46:13;;;;;;;0.80;0.52;;;;;;;12.66;100.00;101150.72;5034405;28;20060;-77
2023/11/09 14:48:39;;;;;;;0.55;0.47;;;;;;;12.62;100.00;101148.09;5031767;28;20119;-76
2023/11/09 14:51:10;;;;;;;0.75;0.75;;;;;;;12.61;100.00;101151.59;5012167;28;20037;-75
2023/11/09 14:54:28;;;;;;;0.60;0.60;;;;;;;12.46;100.00;101150.66;5034091;28;20021;-76
2023/11/09 14:56:55;;;;;;;0.43;0.40;;;;;;;12.58;100.00;101159.50;5043285;28;20033;-75
2023/11/09 14:59:21;;;;;;;4.47;0.93;;;;;;;12.23;100.00;101113.72;5033542;28;20029;-76
2023/11/09 15:01:47;;;;;;;1.52;1.05;;;;;;;11.86;100.00;101061.78;5028162;28;20088;-74
2023/11/09 15:04:20;;;;;;;2.05;1.60;;;;;;;12.39;100.00;101130.47;5030926;28;20037;-76
2023/11/09 15:06:49;;;;;;;0.90;0.68;;;;;;;12.39;100.00;101132.22;5033273;28;20176;-76
2023/11/09 15:09:19;;;;;;;0.80;0.57;;;;;;;12.37;100.00;101150.63;5027104;28;20051;-77
2023/11/09 15:11:48;;;;;;;1.08;0.63;;;;;;;11.95;100.00;101082.91;5009930;28;20306;-76
2023/11/09 15:14:14;;;;;;;0.50;0.50;;;;;;;12.07;100.00;101095.22;5026055;28;20030;-77
2023/11/09 15:17:01;;;;;;;2.25;1.40;;;;;;;12.21;100.00;101151.44;5028328;28;20033;-76
2023/11/09 15:19:27;;;;;;;1.58;1.25;;;;;;;11.48;100.00;101051.94;5029575;28;20037;-77
2023/11/09 15:21:54;;;;;;;0.93;0.70;;;;;;;12.00;100.00;101116.22;5030546;28;20053;-77
2023/11/09 15:24:19;;;;;;;9.70;1.50;;;;;;;12.13;100.00;101140.88;5012275;28;20044;-77
2023/11/09 15:27:05;;;;;;;1.75;1.52;;;;;;;12.16;100.00;101143.50;5030893;28;20442;-77
2023/11/09 15:29:30;;;;;;;1.83;1.65;;;;;;;12.08;100.00;101139.06;5032903;28;20079;-76
2023/11/09 15:31:56;;;;;;;0.98;0.75;;;;;;;12.01;100.00;101149.56;5032182;28;20412;-77
2023/11/09 15:34:21;;;;;;;2.00;1.80;;;;;;;12.04;100.00;101136.44;5028701;28;20099;-76
2023/11/09 15:36:56;;;;;;;1.42;0.95;;;;;;;12.13;100.00;101155.78;5025721;28;20057;-77
2023/11/09 15:39:25;;;;;;;1.27;0.88;;;;;;;12.03;100.00;101155.72;5041441;28;20123;-77
2023/11/09 15:45:37;;;;;;;0.40;0.40;;;;;;;11.85;100.00;101155.56;5030870;28;20040;-75
2023/11/09 15:48:22;;;;;;;0.77;0.77;;;;;;;11.80;100.00;101155.53;5036125;28;20127;-76
2023/11/09 15:50:49;;;;;;;2.80;2.00;;;;;;;11.69;100.00;101149.31;5031365;28;20033;-75
2023/11/09 15:53:15;;;;;;;1.50;1.08;;;;;;;11.32;100.00;101074.56;5029982;28;20072;-75
2023/11/09 15:55:41;;;;;;;0.52;0.52;;;;;;;11.19;100.00;101063.06;5028573;28;20116;-76
2023/11/09 15:58:41;;;;;;;1.50;1.02;;;;;;;11.75;100.00;101178.31;5042875;28;20346;-76
2023/11/09 16:01:36;;;;;;;0.80;0.80;;;;;;;11.71;100.00;101180.88;5034017;28;20457;-76
2023/11/09 16:04:02;;;;;;;1.20;0.98;;;;;;;11.53;100.00;101160.59;5028394;28;20037;-75
2023/11/09 16:06:28;;;;;;;1.38;1.27;;;;;;;11.33;100.00;101137.66;5030487;28;20030;-76
2023/11/09 16:08:53;;;;;;;1.17;1.05;;;;;;;11.02;100.00;101097.09;5026284;28;20025;-75
2023/11/09 16:11:20;;;;;;;4.43;2.28;;;;;;;11.41;100.00;101161.38;5029615;28;20029;-76
2023/11/09 16:17:36;;;;;;;2.05;1.95;;;;;;;11.43;100.00;101188.53;5052558;28;20121;-77
2023/11/09 16:20:11;;;;;;;2.17;1.63;;;;;;;11.31;100.00;101191.06;5028799;28;20496;-76
2023/11/09 16:22:37;;;;;;;5.43;2.88;;;;;;;10.42;100.00;101069.34;5036192;28;20037;-76
2023/11/09 16:25:06;;;;;;;1.25;0.65;;;;;;;10.34;100.00;101050.91;5049626;28;20029;-78
2023/11/09 16:27:35;;;;;;;1.05;0.70;;;;;;;10.50;100.00;101072.94;5021937;28;20053;-75
2023/11/09 16:30:00;;;;;;;4.05;2.28;;;;;;;11.05;100.00;101165.41;5011965;28;20449;-76
2023/11/09 16:32:29;;;;;;;2.88;2.50;;;;;;;11.24;100.00;101198.00;5030939;28;20053;-76
2023/11/09 16:34:55;;;;;;;7.35;2.05;;;;;;;11.14;100.00;101186.53;5028744;28;20041;-76
2023/11/09 16:37:21;;;;;;;4.28;2.72;;;;;;;11.22;100.00;101212.00;5029456;28;20047;-76
2023/11/09 16:39:48;;;;;;;3.13;2.08;;;;;;;10.12;100.00;101027.03;5042470;28;20021;-78
2023/11/09 16:42:14;;;;;;;2.33;1.27;;;;;;;10.55;100.00;101107.97;5044827;28;20489;-76
2023/11/09 16:44:40;;;;;;;3.63;2.55;;;;;;;10.46;100.00;101100.00;5033783;28;20030;-76
2023/11/09 16:47:12;;;;;;;1.08;1.00;;;;;;;11.07;100.00;101225.81;5029984;28;20045;-78
2023/11/09 16:49:38;;;;;;;2.35;1.23;;;;;;;10.90;100.00;101213.38;5029912;28;20029;-76